Flight Track Log - Related Links

Times and Time Zones

All times are in EDT time to prevent confusion due to time zone crossing. See the N70RB flight status page for this flight to view local times or setup timezone preferences in your user account.

Time Position Orientation Groundspeed Altitude Reporting Facility
EDT Latitude Longitude Course Direction KTS MPH feet Rate Location/Type
Thu 03:31:22 PM 42.2600 -85.3400 233° Southwest 104 120 3,500  Level Chicago Center
Thu 03:32:24 PM 42.2389 -85.3778 233° Southwest 105 121 4,200 435 Climbing Chicago Center
Thu 03:33:26 PM 42.2208 -85.4106 233° Southwest 107 123 4,400 97 Climbing Chicago Center
Thu 03:34:28 PM 42.1972 -85.4531 233° Southwest 131 151 4,400 48 Level Chicago Center
Thu 03:35:00 PM 42.1847 -85.4705 233° Southwest  Level Estimated
Thu 03:35:30 PM 42.1764 -85.4914 234° Southwest 131 151 4,500  Level Chicago Center
Thu 03:36:00 PM 42.1643 -85.5071 233° Southwest  Level Estimated
Thu 03:36:33 PM 42.1533 -85.5300 231° Southwest 131 151 4,500  Level Chicago Center
Thu 03:37:35 PM 42.1269 -85.5797 234° Southwest 135 155 4,500 -48 Level Chicago Center
Thu 03:38:37 PM 42.1053 -85.6186 233° Southwest 134 154 4,400 -48 Descending Chicago Center
Thu 03:39:39 PM 42.0836 -85.6569 233° Southwest 131 151 4,400 48 Level Chicago Center
Thu 03:40:41 PM 42.0619 -85.6956 233° Southwest 130 150 4,500  Climbing Chicago Center
Thu 03:41:43 PM 42.0392 -85.7347 232° Southwest 131 151 4,400 -48 Descending Chicago Center
Thu 03:42:45 PM 42.0175 -85.7733 233° Southwest 130 150 4,400 48 Level Chicago Center
Thu 03:43:47 PM 41.9917 -85.8194 233° Southwest 130 150 4,500 48 Climbing Chicago Center
Thu 03:44:49 PM 41.9694 -85.8589 233° Southwest 131 151 4,500  Level Chicago Center
Thu 03:45:51 PM 41.9472 -85.8975 232° Southwest 132 152 4,500  Level Chicago Center
Thu 03:46:53 PM 41.9258 -85.9353 233° Southwest 129 148 4,500 -48 Level Chicago Center
Thu 03:47:55 PM 41.9025 -85.9758 232° Southwest 135 155 4,400  Descending Chicago Center
Thu 03:48:57 PM 41.8786 -86.0189 233° Southwest 143 165 4,500 48 Climbing Chicago Center
Thu 03:50:00 PM 41.8511 -86.0658 232° Southwest 135 155 4,500 -144 Level Chicago Center
Thu 03:51:02 PM 41.8314 -86.1022 234° Southwest 127 146 4,200 -629 Descending Chicago Center
Thu 03:52:04 PM 41.8111 -86.1422 236° Southwest 127 146 3,200 -968 Descending Chicago Center
Thu 03:53:06 PM 41.7889 -86.1828 234° Southwest 131 151 2,200 -726 Descending Chicago Center
Thu 03:54:08 PM 41.7669 -86.2217 233° Southwest 132 152 1,700 -194 Descending Chicago Center
Thu 03:55:10 PM 41.7350 -86.2497 213° Southwest 123 142 1,800 -145 Climbing Chicago Center
Thu 03:56:12 PM 41.7011 -86.2558 188° South 119 137 1,400 -387 Descending Chicago Center
Thu 03:58:00 PM 41.7000 -86.3167 246° West  Level FlightAware Approximate
Thu 04:05:00 PM 41.7082 -86.3173 246° West  Level Estimated
Thu 04:06:00 PM 41.7082 -86.3173 246° West  Level Estimated

Login

Don't have an account? Register now (free) for customized features, flight alerts, and more!